createdAt,value
2019-02-14T00:00:45.571Z,87.51
2019-02-14T00:03:14.285Z,87.47
2019-02-14T00:05:43.006Z,87.40
2019-02-14T00:08:30.920Z,87.24
2019-02-14T00:10:59.682Z,87.52
2019-02-14T00:13:28.377Z,87.78
2019-02-14T00:15:57.027Z,87.20
2019-02-14T00:18:25.706Z,87.70
2019-02-14T00:20:54.367Z,87.90
2019-02-14T00:23:23.051Z,88.00
2019-02-14T00:25:51.709Z,88.11
2019-02-14T00:28:20.346Z,88.64
2019-02-14T00:30:49.091Z,88.32
2019-02-14T00:33:17.768Z,87.17
2019-02-14T00:35:46.462Z,86.97
2019-02-14T00:38:15.108Z,87.63
2019-02-14T00:41:03.036Z,87.61
2019-02-14T00:43:50.895Z,87.73
2019-02-14T00:46:19.487Z,88.50
2019-02-14T00:48:48.109Z,88.07
2019-02-14T00:51:16.784Z,88.04
2019-02-14T00:53:45.398Z,87.61
2019-02-14T00:56:14.029Z,86.95
2019-02-14T00:58:42.632Z,86.91
2019-02-14T01:01:11.216Z,87.96
2019-02-14T01:03:58.954Z,88.55
2019-02-14T01:06:46.897Z,88.57
2019-02-14T01:11:50.186Z,88.35
2019-02-14T01:14:18.879Z,88.58
2019-02-14T01:17:06.825Z,89.53
2019-02-14T01:19:35.615Z,89.32
2019-02-14T01:22:23.455Z,88.83
2019-02-14T01:24:52.159Z,88.83
2019-02-14T01:27:20.792Z,89.15
2019-02-14T01:29:49.495Z,89.71
2019-02-14T01:32:18.300Z,90.15
2019-02-14T01:34:46.971Z,90.35
2019-02-14T01:37:15.683Z,89.79
2019-02-14T01:40:03.602Z,89.54
2019-02-14T01:42:51.552Z,90.15
2019-02-14T01:45:40.782Z,90.66
2019-02-14T01:48:30.075Z,90.79
2019-02-14T01:50:58.785Z,90.77
2019-02-14T01:53:27.412Z,90.65
2019-02-14T01:55:55.987Z,89.82
2019-02-14T01:58:24.614Z,89.25
2019-02-14T02:03:46.874Z,89.62
2019-02-14T02:06:34.845Z,89.72
2019-02-14T02:12:11.745Z,90.08
2019-02-14T02:14:40.383Z,90.20
2019-02-14T02:17:28.278Z,89.98
2019-02-14T02:20:16.183Z,90.01
2019-02-14T02:23:04.201Z,90.37
2019-02-14T02:25:32.884Z,90.74
2019-02-14T02:28:01.523Z,90.67
2019-02-14T02:30:30.147Z,91.02
2019-02-14T02:33:17.958Z,91.63
2019-02-14T02:35:46.529Z,92.03
2019-02-14T02:38:15.229Z,92.30
2019-02-14T02:40:43.926Z,92.37
2019-02-14T02:43:12.580Z,92.78
2019-02-14T02:45:41.258Z,93.59
2019-02-14T02:48:09.922Z,94.03
2019-02-14T02:50:38.631Z,94.34
2019-02-14T02:53:07.191Z,94.50
2019-02-14T02:55:35.753Z,94.54
2019-02-14T02:58:04.433Z,94.71
2019-02-14T03:00:33.114Z,94.61
2019-02-14T03:03:20.996Z,94.34
2019-02-14T03:06:10.887Z,94.22
2019-02-14T03:08:39.189Z,94.49
2019-02-14T03:11:07.696Z,94.57
2019-02-14T03:13:36.386Z,94.19
2019-02-14T03:16:05.049Z,93.83
2019-02-14T03:18:53.013Z,93.30
2019-02-14T03:21:40.927Z,93.61
2019-02-14T03:24:09.661Z,93.95
2019-02-14T03:26:38.317Z,94.22
2019-02-14T03:29:06.964Z,94.40
2019-02-14T03:31:35.664Z,94.71
2019-02-14T03:34:04.348Z,94.69
2019-02-14T03:36:52.218Z,93.84
2019-02-14T03:42:35.080Z,93.84
2019-02-14T03:48:11.886Z,94.18
2019-02-14T03:50:40.587Z,94.33
2019-02-14T03:53:28.522Z,94.25
2019-02-14T03:55:57.139Z,94.50
2019-02-14T03:58:25.715Z,94.74
2019-02-14T04:01:13.535Z,94.82
2019-02-14T04:03:42.227Z,94.85
2019-02-14T04:06:30.168Z,94.90
2019-02-14T04:09:18.234Z,95.03
2019-02-14T04:12:06.108Z,94.99
2019-02-14T04:14:54.181Z,94.77
2019-02-14T04:17:41.955Z,94.89
2019-02-14T04:20:50.392Z,95.18
2019-02-14T04:23:38.207Z,95.04
2019-02-14T04:26:06.782Z,94.28
2019-02-14T04:28:35.414Z,94.00
2019-02-14T04:31:04.093Z,94.30
2019-02-14T04:33:32.812Z,94.62
2019-02-14T04:36:20.651Z,94.80
2019-02-14T04:39:08.595Z,94.50
2019-02-14T04:41:56.510Z,93.46
2019-02-14T04:44:44.401Z,93.70
2019-02-14T04:47:32.170Z,94.37
2019-02-14T04:50:19.993Z,95.18
2019-02-14T04:53:07.950Z,95.20
2019-02-14T04:55:55.773Z,95.08
2019-02-14T04:58:43.598Z,95.08
2019-02-14T05:01:31.410Z,95.17
2019-02-14T05:04:19.335Z,95.02
2019-02-14T05:06:48.104Z,94.24
2019-02-14T05:09:16.869Z,94.16
2019-02-14T05:11:45.520Z,94.52
2019-02-14T05:14:14.204Z,94.85
2019-02-14T05:16:42.966Z,95.20
2019-02-14T05:19:11.627Z,95.43
2019-02-14T05:21:40.214Z,95.87
2019-02-14T05:24:08.836Z,96.06
2019-02-14T05:26:37.504Z,96.14
2019-02-14T05:29:06.076Z,96.07
2019-02-14T05:31:34.765Z,95.86
2019-02-14T05:34:03.447Z,95.75
2019-02-14T05:36:32.126Z,95.64
2019-02-14T05:39:00.819Z,95.21
2019-02-14T05:41:29.510Z,94.53
2019-02-14T05:43:58.090Z,94.31
2019-02-14T05:46:26.645Z,94.32
2019-02-14T05:48:55.272Z,94.60
2019-02-14T05:51:43.146Z,94.74
2019-02-14T05:54:11.842Z,94.45
2019-02-14T05:56:40.552Z,94.47
2019-02-14T05:59:28.330Z,94.65
2019-02-14T06:02:16.147Z,94.79
2019-02-14T06:05:04.057Z,94.81
2019-02-14T06:07:32.699Z,94.98
2019-02-14T06:10:01.330Z,94.99
2019-02-14T06:12:30.049Z,95.00
2019-02-14T06:14:58.724Z,94.96
2019-02-14T06:17:27.430Z,94.94
2019-02-14T06:20:15.354Z,94.90
2019-02-14T06:22:44.049Z,94.65
2019-02-14T06:25:52.487Z,94.08
2019-02-14T06:28:21.085Z,93.74
2019-02-14T06:30:49.792Z,93.90
2019-02-14T06:33:18.423Z,94.04
2019-02-14T06:35:47.023Z,94.16
2019-02-14T06:38:15.696Z,94.31
2019-02-14T06:40:44.405Z,94.44
2019-02-14T06:43:12.985Z,94.44
2019-02-14T06:46:00.845Z,94.40
2019-02-14T06:48:29.529Z,94.46
2019-02-14T06:50:58.237Z,94.41
2019-02-14T06:53:26.894Z,94.35
2019-02-14T06:55:55.594Z,93.79
2019-02-14T06:58:43.546Z,93.57
2019-02-14T07:01:31.416Z,93.73
2019-02-14T07:04:19.389Z,93.28
2019-02-14T07:07:07.311Z,92.80
2019-02-14T07:09:35.974Z,92.84
2019-02-14T07:14:39.079Z,93.38
2019-02-14T07:17:26.887Z,93.51
2019-02-14T07:20:14.782Z,93.47
2019-02-14T07:23:02.616Z,93.37
2019-02-14T07:25:50.474Z,93.37
2019-02-14T07:28:38.274Z,93.44
2019-02-14T07:31:46.773Z,93.55
2019-02-14T07:34:34.615Z,93.58
2019-02-14T07:37:26.856Z,93.49
2019-02-14T07:39:52.964Z,93.25
2019-02-14T07:42:40.769Z,93.00
2019-02-14T07:45:49.250Z,92.19
2019-02-14T07:48:37.123Z,91.46
2019-02-14T07:51:24.874Z,91.46
2019-02-14T07:54:12.634Z,91.50
2019-02-14T07:57:00.557Z,91.47
2019-02-14T07:59:29.254Z,91.07
2019-02-14T08:02:17.155Z,89.90
2019-02-14T08:04:45.854Z,89.31
2019-02-14T08:07:14.563Z,87.17
2019-02-14T08:10:02.452Z,85.57
2019-02-14T08:12:50.269Z,84.82
2019-02-14T08:15:18.910Z,83.18
2019-02-14T08:17:47.706Z,80.87
2019-02-14T08:20:35.634Z,79.73
2019-02-14T08:23:23.495Z,78.29
2019-02-14T08:26:11.410Z,75.26
2019-02-14T08:28:40.035Z,75.72
2019-02-14T08:31:27.906Z,71.12
2019-02-14T08:34:15.686Z,66.60
2019-02-14T08:36:44.425Z,66.78
2019-02-14T08:39:32.348Z,67.16
2019-02-14T08:42:01.048Z,67.15
2019-02-14T08:44:29.678Z,67.03
2019-02-14T08:47:17.616Z,65.32
2019-02-14T08:50:06.635Z,64.89
2019-02-14T08:52:54.527Z,64.37
2019-02-14T08:55:42.445Z,63.20
2019-02-14T08:58:30.275Z,62.78
2019-02-14T09:00:58.959Z,62.82
2019-02-14T09:03:27.552Z,59.55
2019-02-14T09:06:15.501Z,56.15
2019-02-14T09:08:44.286Z,57.73
2019-02-14T09:11:32.222Z,58.10
2019-02-14T09:14:20.128Z,58.26
2019-02-14T09:17:08.013Z,57.15
2019-02-14T09:19:36.718Z,57.22
2019-02-14T09:22:05.269Z,54.89
2019-02-14T09:24:33.951Z,54.56
2019-02-14T09:27:21.790Z,57.50
2019-02-14T09:30:09.798Z,58.15
2019-02-14T09:32:38.449Z,59.68
2019-02-14T09:35:46.939Z,63.06
2019-02-14T09:38:15.595Z,64.99
2019-02-14T09:40:44.217Z,66.93
2019-02-14T09:43:12.886Z,66.66
2019-02-14T09:45:41.531Z,66.57
2019-02-14T09:48:29.301Z,66.06
2019-02-14T09:50:57.980Z,64.43
2019-02-14T09:53:26.631Z,61.25
2019-02-14T09:55:55.325Z,59.23
2019-02-14T09:58:23.960Z,58.37
2019-02-14T10:00:52.539Z,55.48
2019-02-14T10:03:21.192Z,56.05
2019-02-14T10:05:49.865Z,54.86
2019-02-14T10:08:18.571Z,53.65
2019-02-14T10:11:06.318Z,51.43
2019-02-14T10:13:34.989Z,53.93
2019-02-14T10:16:03.635Z,56.06
2019-02-14T10:18:32.248Z,56.60
2019-02-14T10:21:00.894Z,55.02
2019-02-14T10:23:29.541Z,54.10
2019-02-14T10:25:58.260Z,52.94
2019-02-14T10:28:26.950Z,53.79
2019-02-14T10:31:14.897Z,53.98
2019-02-14T10:33:43.519Z,52.13
2019-02-14T10:36:12.213Z,50.59
2019-02-14T10:38:40.863Z,48.88
2019-02-14T10:41:29.353Z,45.19
2019-02-14T10:43:58.934Z,43.66
2019-02-14T10:46:27.620Z,41.78
2019-02-14T10:48:56.312Z,43.16
2019-02-14T10:51:24.968Z,45.86
2019-02-14T10:53:53.607Z,45.68
2019-02-14T10:56:22.352Z,43.69
2019-02-14T10:58:50.982Z,43.13
2019-02-14T11:01:19.686Z,42.70
2019-02-14T11:03:48.318Z,43.96
2019-02-14T11:06:17.000Z,44.21
2019-02-14T11:08:45.672Z,44.47
2019-02-14T11:11:14.310Z,45.00
2019-02-14T11:13:42.947Z,45.97
2019-02-14T11:16:30.849Z,42.24
2019-02-14T11:19:18.808Z,44.30
2019-02-14T11:22:06.761Z,44.57
2019-02-14T11:24:35.399Z,41.75
2019-02-14T11:27:04.496Z,41.58
2019-02-14T11:29:33.259Z,41.95
2019-02-14T11:32:21.114Z,41.91
2019-02-14T11:35:09.041Z,41.44
2019-02-14T11:37:37.726Z,40.15
2019-02-14T11:40:46.202Z,41.03
2019-02-14T11:43:14.922Z,43.16
2019-02-14T11:45:43.615Z,42.40
2019-02-14T11:48:12.317Z,40.94
2019-02-14T11:51:00.167Z,41.97
2019-02-14T11:53:29.387Z,42.51
2019-02-14T11:55:59.163Z,40.53
2019-02-14T11:58:27.855Z,40.57
2019-02-14T12:00:56.521Z,40.32
2019-02-14T12:03:25.202Z,40.40
2019-02-14T12:05:53.850Z,39.76
2019-02-14T12:08:22.526Z,41.42
2019-02-14T12:10:51.224Z,44.95
2019-02-14T12:13:19.953Z,46.71
2019-02-14T12:15:48.721Z,45.32
2019-02-14T12:18:17.364Z,46.83
2019-02-14T12:20:47.927Z,46.30
2019-02-14T12:23:16.427Z,45.95
2019-02-14T12:25:45.333Z,46.69
2019-02-14T12:28:14.044Z,45.18
2019-02-14T12:30:42.770Z,44.14
2019-02-14T12:33:11.389Z,45.75
2019-02-14T12:35:40.037Z,46.16
2019-02-14T12:38:08.730Z,45.91
2019-02-14T12:40:37.455Z,45.83
2019-02-14T12:43:25.606Z,44.83
2019-02-14T12:45:54.296Z,44.68
2019-02-14T12:48:42.093Z,39.67
2019-02-14T12:51:10.786Z,35.12
2019-02-14T12:53:58.791Z,36.26
2019-02-14T12:56:27.530Z,36.12
2019-02-14T12:59:15.365Z,35.46
2019-02-14T13:01:44.007Z,33.89
2019-02-14T13:04:31.845Z,31.21
2019-02-14T13:07:20.455Z,28.81
2019-02-14T13:09:49.213Z,31.63
2019-02-14T13:12:37.004Z,34.80
2019-02-14T13:15:45.460Z,34.73
2019-02-14T13:18:14.108Z,35.11
2019-02-14T13:20:42.854Z,35.14
2019-02-14T13:23:11.480Z,35.24
2019-02-14T13:25:40.137Z,35.51
2019-02-14T13:28:08.852Z,35.64
2019-02-14T13:30:56.678Z,34.95
2019-02-14T13:33:25.352Z,33.96
2019-02-14T13:36:13.273Z,33.41
2019-02-14T13:38:41.913Z,33.06
2019-02-14T13:41:10.616Z,31.47
2019-02-14T13:43:58.556Z,28.36
2019-02-14T13:46:27.133Z,31.13
2019-02-14T13:48:55.828Z,28.73
2019-02-14T13:51:24.487Z,28.21
2019-02-14T13:53:53.195Z,25.76
2019-02-14T13:56:21.880Z,25.21
2019-02-14T13:58:50.561Z,26.81
2019-02-14T14:01:19.141Z,25.24
2019-02-14T14:03:47.812Z,26.77
2019-02-14T14:06:16.463Z,25.82
2019-02-14T14:08:45.185Z,25.93
2019-02-14T14:11:13.825Z,25.96
2019-02-14T14:13:42.518Z,26.52
2019-02-14T14:16:30.392Z,24.53
2019-02-14T14:19:18.147Z,24.37
2019-02-14T14:22:06.121Z,24.67
2019-02-14T14:24:34.845Z,25.79
2019-02-14T14:27:03.549Z,24.64
2019-02-14T14:29:32.259Z,26.21
2019-02-14T14:32:00.861Z,26.32
2019-02-14T14:34:29.509Z,26.34
2019-02-14T14:36:58.204Z,27.48
2019-02-14T14:39:26.788Z,28.05
2019-02-14T14:41:55.477Z,28.24
2019-02-14T14:49:52.354Z,26.01
2019-02-14T14:52:40.271Z,26.19
2019-02-14T14:55:08.974Z,24.35
2019-02-14T14:57:37.626Z,25.51
2019-02-14T15:00:27.002Z,25.76
2019-02-14T15:03:14.810Z,26.46
2019-02-14T15:05:43.359Z,25.75
2019-02-14T15:08:31.160Z,26.09
2019-02-14T15:10:59.827Z,25.00
2019-02-14T15:13:28.540Z,24.25
2019-02-14T15:15:57.249Z,22.65
2019-02-14T15:21:19.385Z,21.35
2019-02-14T15:23:48.098Z,21.73
2019-02-14T15:26:16.679Z,21.70
2019-02-14T15:28:45.380Z,21.94
2019-02-14T15:31:14.028Z,22.25
2019-02-14T15:33:42.607Z,21.23
2019-02-14T15:36:11.303Z,20.62
2019-02-14T15:38:59.194Z,20.89
2019-02-14T15:41:27.868Z,20.71
2019-02-14T15:43:56.554Z,20.80
2019-02-14T15:46:25.149Z,20.95
2019-02-14T15:48:53.798Z,20.87
2019-02-14T15:51:22.498Z,20.71
2019-02-14T15:53:51.149Z,21.12
2019-02-14T15:56:39.079Z,21.50
2019-02-14T15:59:28.842Z,22.53
2019-02-14T16:01:57.348Z,24.47
2019-02-14T16:04:26.682Z,25.38
2019-02-14T16:07:17.547Z,25.89
2019-02-14T16:09:45.932Z,26.90
2019-02-14T16:12:33.865Z,27.20
2019-02-14T16:15:21.713Z,28.48
2019-02-14T16:17:50.424Z,29.77
2019-02-14T16:20:19.913Z,29.99
2019-02-14T16:22:49.429Z,31.46
2019-02-14T16:25:18.098Z,32.52
2019-02-14T16:27:48.283Z,33.60
2019-02-14T16:30:17.275Z,34.69
2019-02-14T16:32:45.960Z,35.16
2019-02-14T16:35:14.650Z,36.33
2019-02-14T16:38:02.506Z,36.43
2019-02-14T16:40:38.281Z,37.51
2019-02-14T16:43:01.602Z,38.84
2019-02-14T16:45:30.298Z,39.51
2019-02-14T16:47:58.945Z,40.63
2019-02-14T16:50:27.625Z,41.31
2019-02-14T16:52:56.306Z,41.91
2019-02-14T16:55:24.916Z,42.95
2019-02-14T16:57:53.590Z,43.67
2019-02-14T17:00:22.234Z,44.27
2019-02-14T17:02:50.945Z,45.44
2019-02-14T17:05:19.574Z,46.19
2019-02-14T17:08:07.504Z,47.16
2019-02-14T17:10:43.635Z,47.78
2019-02-14T17:13:31.372Z,48.41
2019-02-14T17:16:19.235Z,48.89
2019-02-14T17:18:47.886Z,49.40
2019-02-14T17:21:35.760Z,49.50
2019-02-14T17:24:23.717Z,49.26
2019-02-14T17:27:06.935Z,51.24
2019-02-14T17:29:36.657Z,51.82
2019-02-14T17:32:05.574Z,52.43
2019-02-14T17:34:34.268Z,52.88
2019-02-14T17:37:22.158Z,53.18
2019-02-14T17:42:45.530Z,54.41
2019-02-14T17:45:33.472Z,54.63
2019-02-14T17:48:02.177Z,54.21
2019-02-14T17:50:30.824Z,55.37
2019-02-14T17:52:59.445Z,55.93
2019-02-14T17:55:47.264Z,56.41
2019-02-14T18:01:09.625Z,56.60
2019-02-14T18:03:57.657Z,56.94
2019-02-14T18:06:45.506Z,57.50
2019-02-14T18:09:14.887Z,57.08
2019-02-14T18:11:43.704Z,57.07
2019-02-14T18:14:12.921Z,57.64
2019-02-14T18:19:55.288Z,58.91
2019-02-14T18:22:43.164Z,59.18
2019-02-14T18:25:51.615Z,59.38
2019-02-14T18:31:13.954Z,61.00
2019-02-14T18:33:42.600Z,60.79
2019-02-14T18:36:11.285Z,61.20
2019-02-14T18:38:39.927Z,61.25
2019-02-14T18:41:08.562Z,61.46
2019-02-14T18:43:37.258Z,61.60
2019-02-14T18:46:05.953Z,62.01
2019-02-14T18:48:53.908Z,62.51
2019-02-14T18:51:41.789Z,62.93
2019-02-14T18:54:10.488Z,63.03
2019-02-14T18:56:58.305Z,63.24
2019-02-14T18:59:46.087Z,63.94
2019-02-14T19:02:15.623Z,64.31
2019-02-14T19:05:03.939Z,64.39
2019-02-14T19:07:52.052Z,64.12
2019-02-14T19:10:40.397Z,64.36
2019-02-14T19:13:28.279Z,64.81
2019-02-14T19:15:56.869Z,65.15
2019-02-14T19:18:25.526Z,65.06
2019-02-14T19:20:54.283Z,65.28
2019-02-14T19:23:24.269Z,65.71
2019-02-14T19:25:53.277Z,65.67
2019-02-14T19:31:17.128Z,66.20
2019-02-14T19:34:04.941Z,66.20
2019-02-14T19:36:33.667Z,66.26
2019-02-14T19:41:51.696Z,66.56
2019-02-14T19:44:20.329Z,66.17
2019-02-14T19:47:08.200Z,66.58
2019-02-14T19:49:36.855Z,66.86
2019-02-14T19:52:05.468Z,66.91
2019-02-14T19:54:53.306Z,66.97
2019-02-14T19:57:22.034Z,67.57
2019-02-14T20:00:09.932Z,67.76
2019-02-14T20:03:18.446Z,68.12
2019-02-14T20:06:06.295Z,67.64
2019-02-14T20:08:34.987Z,67.13
2019-02-14T20:14:10.789Z,67.49
2019-02-14T20:16:58.599Z,68.83
2019-02-14T20:19:27.275Z,68.20
2019-02-14T20:21:55.987Z,69.20
2019-02-14T20:24:24.548Z,70.22
2019-02-14T20:27:12.537Z,69.93
2019-02-14T20:30:00.749Z,70.66
2019-02-14T20:32:48.689Z,70.02
2019-02-14T20:35:37.134Z,69.80
2019-02-14T20:38:25.696Z,70.01
2019-02-14T20:41:13.418Z,70.45
2019-02-14T20:44:01.523Z,69.14
2019-02-14T20:46:50.101Z,69.31
2019-02-14T20:49:18.971Z,67.76
2019-02-14T20:52:06.910Z,68.66
2019-02-14T20:54:35.600Z,68.55
2019-02-14T20:57:23.553Z,68.51
2019-02-14T21:05:35.216Z,68.72
2019-02-14T21:08:04.344Z,67.69
2019-02-14T21:10:52.494Z,67.56
2019-02-14T21:13:22.816Z,67.96
2019-02-14T21:15:51.506Z,68.81
2019-02-14T21:18:39.408Z,69.26
2019-02-14T21:26:49.431Z,69.99
2019-02-14T21:29:37.266Z,70.37
2019-02-14T21:32:25.123Z,70.17
2019-02-14T21:35:13.100Z,70.30
2019-02-14T21:37:43.599Z,70.09
2019-02-14T21:40:52.203Z,70.90
2019-02-14T21:43:40.100Z,70.59
2019-02-14T21:46:08.795Z,70.63
2019-02-14T21:48:39.366Z,70.92
2019-02-14T21:51:27.269Z,71.25
2019-02-14T21:54:17.360Z,71.54
2019-02-14T21:59:53.648Z,71.85
2019-02-14T22:02:41.499Z,71.82
2019-02-14T22:05:50.038Z,70.45
2019-02-14T22:11:27.421Z,72.66
2019-02-14T22:14:17.035Z,73.61
2019-02-14T22:17:04.939Z,73.28
2019-02-14T22:19:52.814Z,72.01
2019-02-14T22:22:40.649Z,73.05
2019-02-14T22:25:50.481Z,74.51
2019-02-14T22:28:21.046Z,74.84
2019-02-14T22:31:08.993Z,75.79
2019-02-14T22:33:37.682Z,75.45
2019-02-14T22:36:46.106Z,74.91
2019-02-14T22:39:33.980Z,75.32
2019-02-14T22:42:02.479Z,75.80
2019-02-14T22:44:50.296Z,75.97
2019-02-14T22:47:18.991Z,75.88
2019-02-14T22:50:06.809Z,76.03
2019-02-14T22:52:54.767Z,76.66
2019-02-14T22:55:42.688Z,77.20
2019-02-14T22:58:11.378Z,77.10
2019-02-14T23:01:19.815Z,77.40
2019-02-14T23:04:07.667Z,77.17
2019-02-14T23:06:55.629Z,77.45
2019-02-14T23:10:04.111Z,77.89
2019-02-14T23:18:01.771Z,77.62
2019-02-14T23:20:30.480Z,78.12
2019-02-14T23:22:59.102Z,78.82
2019-02-14T23:25:27.751Z,79.55
2019-02-14T23:28:15.715Z,79.67
2019-02-14T23:31:03.549Z,79.71
2019-02-14T23:36:12.691Z,79.63
2019-02-14T23:38:41.320Z,79.90
2019-02-14T23:41:29.181Z,79.85
2019-02-14T23:43:57.786Z,79.62
2019-02-14T23:46:45.647Z,80.03
2019-02-14T23:49:14.257Z,80.34
2019-02-14T23:52:01.949Z,80.46
2019-02-14T23:54:49.827Z,80.06
2019-02-14T23:57:37.606Z,79.67
